sensor_id;sensor_type;location;lat;lon;timestamp;P1;durP1;ratioP1;P2;durP2;ratioP2
2211;SDS011;48849;48.758;9.158;2023-04-03T00:00:37;4.40;;;3.33;;
2211;SDS011;48849;48.758;9.158;2023-04-03T00:03:05;4.50;;;3.55;;
2211;SDS011;48849;48.758;9.158;2023-04-03T00:05:31;4.53;;;3.58;;
2211;SDS011;48849;48.758;9.158;2023-04-03T00:08:00;3.95;;;3.35;;
2211;SDS011;48849;48.758;9.158;2023-04-03T00:10:26;3.20;;;3.00;;
2211;SDS011;48849;48.758;9.158;2023-04-03T00:12:53;3.97;;;3.58;;
2211;SDS011;48849;48.758;9.158;2023-04-03T00:15:20;3.35;;;3.05;;
2211;SDS011;48849;48.758;9.158;2023-04-03T00:17:47;3.63;;;3.35;;
2211;SDS011;48849;48.758;9.158;2023-04-03T00:20:13;4.35;;;3.95;;
2211;SDS011;48849;48.758;9.158;2023-04-03T00:22:40;4.03;;;3.65;;
2211;SDS011;48849;48.758;9.158;2023-04-03T00:25:09;3.40;;;2.80;;
2211;SDS011;48849;48.758;9.158;2023-04-03T00:27:36;3.80;;;3.33;;
2211;SDS011;48849;48.758;9.158;2023-04-03T00:30:05;3.47;;;3.17;;
2211;SDS011;48849;48.758;9.158;2023-04-03T00:32:33;4.07;;;3.30;;
2211;SDS011;48849;48.758;9.158;2023-04-03T00:35:00;4.00;;;3.40;;
2211;SDS011;48849;48.758;9.158;2023-04-03T00:37:26;4.18;;;3.50;;
2211;SDS011;48849;48.758;9.158;2023-04-03T00:39:53;3.97;;;3.53;;
2211;SDS011;48849;48.758;9.158;2023-04-03T00:42:21;3.58;;;3.10;;
2211;SDS011;48849;48.758;9.158;2023-04-03T00:47:50;3.95;;;3.58;;
2211;SDS011;48849;48.758;9.158;2023-04-03T00:50:17;3.30;;;3.00;;
2211;SDS011;48849;48.758;9.158;2023-04-03T00:52:45;3.90;;;3.60;;
2211;SDS011;48849;48.758;9.158;2023-04-03T00:55:14;3.75;;;3.50;;
2211;SDS011;48849;48.758;9.158;2023-04-03T00:57:43;5.72;;;3.78;;
2211;SDS011;48849;48.758;9.158;2023-04-03T01:00:13;4.50;;;3.72;;
2211;SDS011;48849;48.758;9.158;2023-04-03T01:02:42;4.30;;;3.90;;
2211;SDS011;48849;48.758;9.158;2023-04-03T01:05:09;3.50;;;3.20;;
2211;SDS011;48849;48.758;9.158;2023-04-03T01:07:37;3.83;;;3.30;;
2211;SDS011;48849;48.758;9.158;2023-04-03T01:10:05;3.85;;;3.45;;
2211;SDS011;48849;48.758;9.158;2023-04-03T01:12:35;3.95;;;3.40;;
2211;SDS011;48849;48.758;9.158;2023-04-03T01:15:06;4.05;;;3.63;;
2211;SDS011;48849;48.758;9.158;2023-04-03T01:17:36;5.32;;;4.20;;
2211;SDS011;48849;48.758;9.158;2023-04-03T01:20:14;3.95;;;3.40;;
2211;SDS011;48849;48.758;9.158;2023-04-03T01:22:59;4.72;;;4.18;;
2211;SDS011;48849;48.758;9.158;2023-04-03T01:25:38;3.38;;;3.08;;
2211;SDS011;48849;48.758;9.158;2023-04-03T01:28:07;4.45;;;3.38;;
2211;SDS011;48849;48.758;9.158;2023-04-03T01:30:39;3.45;;;3.15;;
2211;SDS011;48849;48.758;9.158;2023-04-03T01:33:11;3.45;;;3.15;;
2211;SDS011;48849;48.758;9.158;2023-04-03T01:35:38;3.70;;;3.35;;
2211;SDS011;48849;48.758;9.158;2023-04-03T01:38:05;3.40;;;3.17;;
2211;SDS011;48849;48.758;9.158;2023-04-03T01:40:32;5.32;;;3.40;;
2211;SDS011;48849;48.758;9.158;2023-04-03T01:42:59;4.05;;;3.65;;
2211;SDS011;48849;48.758;9.158;2023-04-03T01:45:26;4.97;;;3.80;;
2211;SDS011;48849;48.758;9.158;2023-04-03T01:47:52;3.97;;;3.67;;
2211;SDS011;48849;48.758;9.158;2023-04-03T01:50:21;6.10;;;3.40;;
2211;SDS011;48849;48.758;9.158;2023-04-03T01:52:48;3.58;;;3.28;;
2211;SDS011;48849;48.758;9.158;2023-04-03T01:55:14;3.88;;;3.33;;
2211;SDS011;48849;48.758;9.158;2023-04-03T01:57:41;3.60;;;3.30;;
2211;SDS011;48849;48.758;9.158;2023-04-03T02:00:08;3.95;;;3.55;;
2211;SDS011;48849;48.758;9.158;2023-04-03T02:02:36;4.20;;;3.10;;
2211;SDS011;48849;48.758;9.158;2023-04-03T02:05:02;6.10;;;3.75;;
2211;SDS011;48849;48.758;9.158;2023-04-03T02:07:31;3.55;;;3.22;;
2211;SDS011;48849;48.758;9.158;2023-04-03T02:09:57;4.45;;;3.55;;
2211;SDS011;48849;48.758;9.158;2023-04-03T02:12:24;3.78;;;3.47;;
2211;SDS011;48849;48.758;9.158;2023-04-03T02:14:51;3.50;;;3.20;;
2211;SDS011;48849;48.758;9.158;2023-04-03T02:17:17;3.40;;;3.20;;
2211;SDS011;48849;48.758;9.158;2023-04-03T02:19:44;4.25;;;3.83;;
2211;SDS011;48849;48.758;9.158;2023-04-03T02:22:11;3.95;;;3.58;;
2211;SDS011;48849;48.758;9.158;2023-04-03T02:24:39;3.38;;;3.10;;
2211;SDS011;48849;48.758;9.158;2023-04-03T02:27:06;3.53;;;3.13;;
2211;SDS011;48849;48.758;9.158;2023-04-03T02:29:33;4.30;;;4.00;;
2211;SDS011;48849;48.758;9.158;2023-04-03T02:31:59;3.42;;;3.22;;
2211;SDS011;48849;48.758;9.158;2023-04-03T02:34:26;3.80;;;3.50;;
2211;SDS011;48849;48.758;9.158;2023-04-03T02:36:53;4.00;;;3.70;;
2211;SDS011;48849;48.758;9.158;2023-04-03T02:39:20;3.40;;;3.20;;
2211;SDS011;48849;48.758;9.158;2023-04-03T02:41:48;3.80;;;3.50;;
2211;SDS011;48849;48.758;9.158;2023-04-03T02:44:14;4.65;;;3.42;;
2211;SDS011;48849;48.758;9.158;2023-04-03T02:46:41;3.17;;;2.97;;
2211;SDS011;48849;48.758;9.158;2023-04-03T02:49:08;3.53;;;3.20;;
2211;SDS011;48849;48.758;9.158;2023-04-03T02:51:34;3.38;;;3.10;;
2211;SDS011;48849;48.758;9.158;2023-04-03T02:54:01;5.25;;;3.45;;
2211;SDS011;48849;48.758;9.158;2023-04-03T02:56:28;3.53;;;3.22;;
2211;SDS011;48849;48.758;9.158;2023-04-03T02:58:56;3.63;;;3.33;;
2211;SDS011;48849;48.758;9.158;2023-04-03T03:01:23;5.03;;;3.40;;
2211;SDS011;48849;48.758;9.158;2023-04-03T03:03:50;3.13;;;2.92;;
2211;SDS011;48849;48.758;9.158;2023-04-03T03:06:17;3.80;;;3.38;;
2211;SDS011;48849;48.758;9.158;2023-04-03T03:08:43;3.55;;;3.22;;
2211;SDS011;48849;48.758;9.158;2023-04-03T03:11:10;4.20;;;3.80;;
2211;SDS011;48849;48.758;9.158;2023-04-03T03:13:37;4.78;;;3.92;;
2211;SDS011;48849;48.758;9.158;2023-04-03T03:16:06;4.75;;;3.72;;
2211;SDS011;48849;48.758;9.158;2023-04-03T03:18:33;4.15;;;3.75;;
2211;SDS011;48849;48.758;9.158;2023-04-03T03:21:00;5.65;;;3.22;;
2211;SDS011;48849;48.758;9.158;2023-04-03T03:23:28;3.85;;;3.42;;
2211;SDS011;48849;48.758;9.158;2023-04-03T03:25:57;4.50;;;3.45;;
2211;SDS011;48849;48.758;9.158;2023-04-03T03:28:25;5.50;;;3.65;;
2211;SDS011;48849;48.758;9.158;2023-04-03T03:30:52;3.72;;;3.45;;
2211;SDS011;48849;48.758;9.158;2023-04-03T03:33:20;4.40;;;3.40;;
2211;SDS011;48849;48.758;9.158;2023-04-03T03:35:47;3.92;;;3.50;;
2211;SDS011;48849;48.758;9.158;2023-04-03T03:38:13;4.25;;;3.10;;
2211;SDS011;48849;48.758;9.158;2023-04-03T03:40:40;3.47;;;3.17;;
2211;SDS011;48849;48.758;9.158;2023-04-03T03:43:07;3.60;;;3.30;;
2211;SDS011;48849;48.758;9.158;2023-04-03T03:45:33;3.30;;;3.00;;
2211;SDS011;48849;48.758;9.158;2023-04-03T03:48:00;3.80;;;3.22;;
2211;SDS011;48849;48.758;9.158;2023-04-03T03:50:28;3.67;;;3.38;;
2211;SDS011;48849;48.758;9.158;2023-04-03T03:52:55;3.00;;;2.80;;
2211;SDS011;48849;48.758;9.158;2023-04-03T03:55:22;3.75;;;3.45;;
2211;SDS011;48849;48.758;9.158;2023-04-03T03:57:48;3.15;;;2.85;;
2211;SDS011;48849;48.758;9.158;2023-04-03T04:00:15;3.80;;;3.50;;
2211;SDS011;48849;48.758;9.158;2023-04-03T04:02:42;4.28;;;3.88;;
2211;SDS011;48849;48.758;9.158;2023-04-03T04:05:09;4.35;;;2.97;;
2211;SDS011;48849;48.758;9.158;2023-04-03T04:07:37;4.10;;;3.20;;
2211;SDS011;48849;48.758;9.158;2023-04-03T04:10:04;3.30;;;3.10;;
2211;SDS011;48849;48.758;9.158;2023-04-03T04:12:32;3.10;;;2.90;;
2211;SDS011;48849;48.758;9.158;2023-04-03T04:15:00;3.17;;;2.97;;
2211;SDS011;48849;48.758;9.158;2023-04-03T04:17:27;3.53;;;3.22;;
2211;SDS011;48849;48.758;9.158;2023-04-03T04:19:54;5.10;;;3.00;;
2211;SDS011;48849;48.758;9.158;2023-04-03T04:22:21;3.28;;;3.08;;
2211;SDS011;48849;48.758;9.158;2023-04-03T04:24:49;5.00;;;2.97;;
2211;SDS011;48849;48.758;9.158;2023-04-03T04:27:15;4.60;;;2.90;;
2211;SDS011;48849;48.758;9.158;2023-04-03T04:29:42;3.30;;;3.00;;
2211;SDS011;48849;48.758;9.158;2023-04-03T04:32:09;3.72;;;3.42;;
2211;SDS011;48849;48.758;9.158;2023-04-03T04:34:36;2.92;;;2.72;;
2211;SDS011;48849;48.758;9.158;2023-04-03T04:37:03;3.75;;;3.28;;
2211;SDS011;48849;48.758;9.158;2023-04-03T04:39:29;3.45;;;2.90;;
2211;SDS011;48849;48.758;9.158;2023-04-03T04:41:57;3.20;;;2.83;;
2211;SDS011;48849;48.758;9.158;2023-04-03T04:44:24;3.90;;;3.50;;
2211;SDS011;48849;48.758;9.158;2023-04-03T04:46:51;2.97;;;2.78;;
2211;SDS011;48849;48.758;9.158;2023-04-03T04:49:17;3.50;;;3.30;;
2211;SDS011;48849;48.758;9.158;2023-04-03T04:51:45;3.15;;;2.50;;
2211;SDS011;48849;48.758;9.158;2023-04-03T04:54:12;4.40;;;2.90;;
2211;SDS011;48849;48.758;9.158;2023-04-03T04:56:38;5.20;;;3.03;;
2211;SDS011;48849;48.758;9.158;2023-04-03T04:59:06;3.08;;;2.83;;
2211;SDS011;48849;48.758;9.158;2023-04-03T05:01:33;3.50;;;3.20;;
2211;SDS011;48849;48.758;9.158;2023-04-03T05:04:00;3.60;;;3.30;;
2211;SDS011;48849;48.758;9.158;2023-04-03T05:06:27;3.03;;;2.83;;
2211;SDS011;48849;48.758;9.158;2023-04-03T05:08:55;3.45;;;3.15;;
2211;SDS011;48849;48.758;9.158;2023-04-03T05:11:22;4.55;;;3.25;;
2211;SDS011;48849;48.758;9.158;2023-04-03T05:13:48;3.00;;;2.70;;
2211;SDS011;48849;48.758;9.158;2023-04-03T05:16:16;4.22;;;2.90;;
2211;SDS011;48849;48.758;9.158;2023-04-03T05:18:43;2.55;;;2.35;;
2211;SDS011;48849;48.758;9.158;2023-04-03T05:21:10;2.97;;;2.70;;
2211;SDS011;48849;48.758;9.158;2023-04-03T05:23:37;2.90;;;2.70;;
2211;SDS011;48849;48.758;9.158;2023-04-03T05:26:03;3.08;;;2.88;;
2211;SDS011;48849;48.758;9.158;2023-04-03T05:28:30;3.70;;;3.35;;
2211;SDS011;48849;48.758;9.158;2023-04-03T05:30:58;3.88;;;3.05;;
2211;SDS011;48849;48.758;9.158;2023-04-03T05:33:26;4.95;;;3.72;;
2211;SDS011;48849;48.758;9.158;2023-04-03T05:35:53;4.18;;;3.30;;
2211;SDS011;48849;48.758;9.158;2023-04-03T05:38:20;4.32;;;3.35;;
2211;SDS011;48849;48.758;9.158;2023-04-03T05:40:47;4.63;;;2.78;;
2211;SDS011;48849;48.758;9.158;2023-04-03T05:43:14;2.85;;;2.65;;
2211;SDS011;48849;48.758;9.158;2023-04-03T05:45:40;2.92;;;2.72;;
2211;SDS011;48849;48.758;9.158;2023-04-03T05:48:07;4.53;;;3.20;;
2211;SDS011;48849;48.758;9.158;2023-04-03T05:50:35;3.38;;;3.00;;
2211;SDS011;48849;48.758;9.158;2023-04-03T05:53:06;3.33;;;2.88;;
2211;SDS011;48849;48.758;9.158;2023-04-03T05:55:38;4.60;;;2.95;;
2211;SDS011;48849;48.758;9.158;2023-04-03T05:58:05;3.10;;;2.90;;
2211;SDS011;48849;48.758;9.158;2023-04-03T06:00:31;3.28;;;3.08;;
2211;SDS011;48849;48.758;9.158;2023-04-03T06:02:58;3.40;;;3.10;;
2211;SDS011;48849;48.758;9.158;2023-04-03T06:05:25;3.90;;;3.60;;
2211;SDS011;48849;48.758;9.158;2023-04-03T06:07:53;3.05;;;2.85;;
2211;SDS011;48849;48.758;9.158;2023-04-03T06:10:20;3.50;;;3.20;;
2211;SDS011;48849;48.758;9.158;2023-04-03T06:12:47;3.42;;;3.00;;
2211;SDS011;48849;48.758;9.158;2023-04-03T06:15:15;5.05;;;3.42;;
2211;SDS011;48849;48.758;9.158;2023-04-03T06:17:42;3.15;;;2.95;;
2211;SDS011;48849;48.758;9.158;2023-04-03T06:20:09;2.92;;;2.70;;
2211;SDS011;48849;48.758;9.158;2023-04-03T06:22:37;3.30;;;3.00;;
2211;SDS011;48849;48.758;9.158;2023-04-03T06:25:05;3.50;;;3.20;;
2211;SDS011;48849;48.758;9.158;2023-04-03T06:27:33;3.88;;;3.58;;
2211;SDS011;48849;48.758;9.158;2023-04-03T06:29:59;3.40;;;3.15;;
2211;SDS011;48849;48.758;9.158;2023-04-03T06:32:26;3.33;;;3.13;;
2211;SDS011;48849;48.758;9.158;2023-04-03T06:34:53;3.60;;;3.30;;
2211;SDS011;48849;48.758;9.158;2023-04-03T06:37:21;3.08;;;2.88;;
2211;SDS011;48849;48.758;9.158;2023-04-03T06:39:51;5.03;;;3.75;;
2211;SDS011;48849;48.758;9.158;2023-04-03T06:42:19;4.07;;;3.40;;
2211;SDS011;48849;48.758;9.158;2023-04-03T06:44:46;3.20;;;2.90;;
2211;SDS011;48849;48.758;9.158;2023-04-03T06:47:13;3.78;;;3.47;;
2211;SDS011;48849;48.758;9.158;2023-04-03T06:49:40;3.42;;;3.13;;
2211;SDS011;48849;48.758;9.158;2023-04-03T06:52:07;3.72;;;2.88;;
2211;SDS011;48849;48.758;9.158;2023-04-03T06:54:37;3.58;;;2.85;;
2211;SDS011;48849;48.758;9.158;2023-04-03T06:57:04;3.83;;;3.53;;
2211;SDS011;48849;48.758;9.158;2023-04-03T06:59:31;3.60;;;3.25;;
2211;SDS011;48849;48.758;9.158;2023-04-03T07:01:58;5.35;;;3.03;;
2211;SDS011;48849;48.758;9.158;2023-04-03T07:04:25;3.50;;;3.20;;
2211;SDS011;48849;48.758;9.158;2023-04-03T07:06:52;3.63;;;3.03;;
2211;SDS011;48849;48.758;9.158;2023-04-03T07:09:19;5.60;;;3.10;;
2211;SDS011;48849;48.758;9.158;2023-04-03T07:11:46;3.58;;;2.92;;
2211;SDS011;48849;48.758;9.158;2023-04-03T07:14:13;3.72;;;3.42;;
2211;SDS011;48849;48.758;9.158;2023-04-03T07:16:41;3.35;;;3.05;;
2211;SDS011;48849;48.758;9.158;2023-04-03T07:19:07;4.38;;;3.25;;
2211;SDS011;48849;48.758;9.158;2023-04-03T07:21:34;3.78;;;3.47;;
2211;SDS011;48849;48.758;9.158;2023-04-03T07:24:01;3.90;;;3.60;;
2211;SDS011;48849;48.758;9.158;2023-04-03T07:26:28;3.28;;;3.05;;
2211;SDS011;48849;48.758;9.158;2023-04-03T07:28:55;4.07;;;3.58;;
2211;SDS011;48849;48.758;9.158;2023-04-03T07:31:22;3.30;;;3.05;;
2211;SDS011;48849;48.758;9.158;2023-04-03T07:33:51;3.95;;;3.63;;
2211;SDS011;48849;48.758;9.158;2023-04-03T07:36:19;3.17;;;2.88;;
2211;SDS011;48849;48.758;9.158;2023-04-03T07:38:47;3.88;;;3.03;;
2211;SDS011;48849;48.758;9.158;2023-04-03T07:41:14;3.35;;;3.03;;
2211;SDS011;48849;48.758;9.158;2023-04-03T07:43:42;5.95;;;3.40;;
2211;SDS011;48849;48.758;9.158;2023-04-03T07:46:09;4.93;;;3.00;;
2211;SDS011;48849;48.758;9.158;2023-04-03T07:48:36;3.72;;;3.30;;
2211;SDS011;48849;48.758;9.158;2023-04-03T07:51:04;3.55;;;3.25;;
2211;SDS011;48849;48.758;9.158;2023-04-03T07:53:31;4.65;;;3.30;;
2211;SDS011;48849;48.758;9.158;2023-04-03T07:55:59;4.20;;;3.05;;
2211;SDS011;48849;48.758;9.158;2023-04-03T07:58:27;3.50;;;3.20;;
2211;SDS011;48849;48.758;9.158;2023-04-03T08:00:54;3.55;;;3.15;;
2211;SDS011;48849;48.758;9.158;2023-04-03T08:03:21;3.60;;;3.30;;
2211;SDS011;48849;48.758;9.158;2023-04-03T08:05:48;3.22;;;2.92;;
2211;SDS011;48849;48.758;9.158;2023-04-03T08:08:18;4.22;;;3.50;;
2211;SDS011;48849;48.758;9.158;2023-04-03T08:10:47;4.80;;;3.38;;
2211;SDS011;48849;48.758;9.158;2023-04-03T08:13:15;4.07;;;3.60;;
2211;SDS011;48849;48.758;9.158;2023-04-03T08:15:42;3.03;;;2.83;;
2211;SDS011;48849;48.758;9.158;2023-04-03T08:18:09;5.82;;;3.60;;
2211;SDS011;48849;48.758;9.158;2023-04-03T08:20:37;4.38;;;3.40;;
2211;SDS011;48849;48.758;9.158;2023-04-03T08:23:04;3.70;;;3.40;;
2211;SDS011;48849;48.758;9.158;2023-04-03T08:25:32;5.07;;;3.15;;
2211;SDS011;48849;48.758;9.158;2023-04-03T08:27:59;4.90;;;3.25;;
2211;SDS011;48849;48.758;9.158;2023-04-03T08:30:27;3.95;;;3.20;;
2211;SDS011;48849;48.758;9.158;2023-04-03T08:32:53;3.42;;;2.90;;
2211;SDS011;48849;48.758;9.158;2023-04-03T08:35:20;5.32;;;3.28;;
2211;SDS011;48849;48.758;9.158;2023-04-03T08:37:47;7.85;;;3.70;;
2211;SDS011;48849;48.758;9.158;2023-04-03T08:40:15;4.22;;;3.50;;
2211;SDS011;48849;48.758;9.158;2023-04-03T08:42:47;4.40;;;3.97;;
2211;SDS011;48849;48.758;9.158;2023-04-03T08:45:21;3.45;;;3.15;;
2211;SDS011;48849;48.758;9.158;2023-04-03T08:47:55;4.03;;;3.70;;
2211;SDS011;48849;48.758;9.158;2023-04-03T08:50:28;4.80;;;3.25;;
2211;SDS011;48849;48.758;9.158;2023-04-03T08:52:59;3.90;;;3.15;;
2211;SDS011;48849;48.758;9.158;2023-04-03T08:55:32;5.18;;;3.45;;
2211;SDS011;48849;48.758;9.158;2023-04-03T08:58:03;3.90;;;3.50;;
2211;SDS011;48849;48.758;9.158;2023-04-03T09:00:34;5.80;;;3.78;;
2211;SDS011;48849;48.758;9.158;2023-04-03T09:03:11;4.93;;;3.90;;
2211;SDS011;48849;48.758;9.158;2023-04-03T09:05:39;3.85;;;3.45;;
2211;SDS011;48849;48.758;9.158;2023-04-03T09:08:13;4.47;;;3.60;;
2211;SDS011;48849;48.758;9.158;2023-04-03T09:10:47;4.88;;;3.50;;
2211;SDS011;48849;48.758;9.158;2023-04-03T09:13:19;5.13;;;3.63;;
2211;SDS011;48849;48.758;9.158;2023-04-03T09:15:52;4.90;;;3.33;;
2211;SDS011;48849;48.758;9.158;2023-04-03T09:18:21;3.30;;;3.10;;
2211;SDS011;48849;48.758;9.158;2023-04-03T09:20:54;4.20;;;3.42;;
2211;SDS011;48849;48.758;9.158;2023-04-03T09:23:26;6.78;;;3.88;;
2211;SDS011;48849;48.758;9.158;2023-04-03T09:25:58;5.05;;;3.53;;
2211;SDS011;48849;48.758;9.158;2023-04-03T09:28:30;3.42;;;3.13;;
2211;SDS011;48849;48.758;9.158;2023-04-03T09:30:58;4.20;;;3.90;;
2211;SDS011;48849;48.758;9.158;2023-04-03T09:33:26;4.40;;;3.30;;
2211;SDS011;48849;48.758;9.158;2023-04-03T09:35:56;5.18;;;3.50;;
2211;SDS011;48849;48.758;9.158;2023-04-03T09:38:22;3.80;;;3.30;;
2211;SDS011;48849;48.758;9.158;2023-04-03T09:40:51;2.65;;;2.45;;
2211;SDS011;48849;48.758;9.158;2023-04-03T09:43:33;3.75;;;3.45;;
2211;SDS011;48849;48.758;9.158;2023-04-03T09:46:17;3.50;;;3.20;;
2211;SDS011;48849;48.758;9.158;2023-04-03T09:48:51;5.43;;;3.47;;
2211;SDS011;48849;48.758;9.158;2023-04-03T09:51:24;3.63;;;3.22;;
2211;SDS011;48849;48.758;9.158;2023-04-03T09:53:53;6.88;;;3.30;;
2211;SDS011;48849;48.758;9.158;2023-04-03T09:56:23;3.33;;;3.05;;
2211;SDS011;48849;48.758;9.158;2023-04-03T09:59:02;3.55;;;2.92;;
2211;SDS011;48849;48.758;9.158;2023-04-03T10:01:34;2.90;;;2.70;;
2211;SDS011;48849;48.758;9.158;2023-04-03T10:04:04;5.97;;;3.55;;
2211;SDS011;48849;48.758;9.158;2023-04-03T10:06:33;2.80;;;2.55;;
2211;SDS011;48849;48.758;9.158;2023-04-03T10:09:02;4.10;;;2.92;;
2211;SDS011;48849;48.758;9.158;2023-04-03T10:11:30;4.82;;;2.90;;
2211;SDS011;48849;48.758;9.158;2023-04-03T10:13:59;3.42;;;3.13;;
2211;SDS011;48849;48.758;9.158;2023-04-03T10:16:29;5.65;;;3.10;;
2211;SDS011;48849;48.758;9.158;2023-04-03T10:19:14;3.90;;;3.60;;
2211;SDS011;48849;48.758;9.158;2023-04-03T10:21:57;6.15;;;4.35;;
2211;SDS011;48849;48.758;9.158;2023-04-03T10:24:30;6.25;;;3.03;;
2211;SDS011;48849;48.758;9.158;2023-04-03T10:27:03;3.25;;;3.05;;
2211;SDS011;48849;48.758;9.158;2023-04-03T10:29:41;4.82;;;3.40;;
2211;SDS011;48849;48.758;9.158;2023-04-03T10:32:17;4.05;;;3.10;;
2211;SDS011;48849;48.758;9.158;2023-04-03T10:34:57;3.35;;;2.97;;
2211;SDS011;48849;48.758;9.158;2023-04-03T10:37:34;4.55;;;3.28;;
2211;SDS011;48849;48.758;9.158;2023-04-03T10:40:21;4.45;;;2.90;;
2211;SDS011;48849;48.758;9.158;2023-04-03T10:42:57;3.22;;;2.60;;
2211;SDS011;48849;48.758;9.158;2023-04-03T10:45:34;3.85;;;3.00;;
2211;SDS011;48849;48.758;9.158;2023-04-03T10:48:29;2.95;;;2.70;;
2211;SDS011;48849;48.758;9.158;2023-04-03T10:51:06;4.95;;;3.15;;
2211;SDS011;48849;48.758;9.158;2023-04-03T10:53:43;4.97;;;2.85;;
2211;SDS011;48849;48.758;9.158;2023-04-03T10:56:18;4.03;;;3.00;;
2211;SDS011;48849;48.758;9.158;2023-04-03T10:58:54;3.65;;;2.30;;
2211;SDS011;48849;48.758;9.158;2023-04-03T11:01:26;3.58;;;2.83;;
2211;SDS011;48849;48.758;9.158;2023-04-03T11:03:57;4.80;;;3.17;;
2211;SDS011;48849;48.758;9.158;2023-04-03T11:06:28;5.90;;;3.40;;
2211;SDS011;48849;48.758;9.158;2023-04-03T11:09:02;4.15;;;2.83;;
2211;SDS011;48849;48.758;9.158;2023-04-03T11:11:34;2.92;;;2.35;;
2211;SDS011;48849;48.758;9.158;2023-04-03T11:14:05;2.72;;;2.20;;
2211;SDS011;48849;48.758;9.158;2023-04-03T11:16:42;3.67;;;2.50;;
2211;SDS011;48849;48.758;9.158;2023-04-03T11:19:14;2.70;;;2.35;;
2211;SDS011;48849;48.758;9.158;2023-04-03T11:21:49;3.35;;;2.55;;
2211;SDS011;48849;48.758;9.158;2023-04-03T11:24:22;3.65;;;2.28;;
2211;SDS011;48849;48.758;9.158;2023-04-03T11:26:51;4.13;;;2.35;;
2211;SDS011;48849;48.758;9.158;2023-04-03T11:29:20;3.58;;;2.63;;
2211;SDS011;48849;48.758;9.158;2023-04-03T11:31:58;3.17;;;2.53;;
2211;SDS011;48849;48.758;9.158;2023-04-03T11:34:33;2.83;;;2.60;;
2211;SDS011;48849;48.758;9.158;2023-04-03T11:37:05;2.58;;;2.35;;
2211;SDS011;48849;48.758;9.158;2023-04-03T11:39:39;3.30;;;2.53;;
2211;SDS011;48849;48.758;9.158;2023-04-03T11:42:13;6.35;;;3.03;;
2211;SDS011;48849;48.758;9.158;2023-04-03T11:44:42;2.85;;;2.65;;
2211;SDS011;48849;48.758;9.158;2023-04-03T11:47:10;2.72;;;2.47;;
2211;SDS011;48849;48.758;9.158;2023-04-03T11:50:00;3.13;;;2.72;;
2211;SDS011;48849;48.758;9.158;2023-04-03T11:55:46;3.83;;;2.40;;
2211;SDS011;48849;48.758;9.158;2023-04-03T11:58:20;4.07;;;3.35;;
2211;SDS011;48849;48.758;9.158;2023-04-03T12:12:57;2.67;;;2.47;;
2211;SDS011;48849;48.758;9.158;2023-04-03T12:24:39;3.17;;;2.50;;
2211;SDS011;48849;48.758;9.158;2023-04-03T12:30:14;4.65;;;2.45;;
2211;SDS011;48849;48.758;9.158;2023-04-03T12:32:47;3.25;;;2.40;;
2211;SDS011;48849;48.758;9.158;2023-04-03T12:35:42;2.75;;;2.30;;
2211;SDS011;48849;48.758;9.158;2023-04-03T12:38:30;3.90;;;1.95;;
2211;SDS011;48849;48.758;9.158;2023-04-03T12:41:16;3.70;;;2.60;;
2211;SDS011;48849;48.758;9.158;2023-04-03T12:43:50;3.60;;;2.28;;
2211;SDS011;48849;48.758;9.158;2023-04-03T12:46:26;5.43;;;2.72;;
2211;SDS011;48849;48.758;9.158;2023-04-03T12:49:02;5.65;;;2.60;;
2211;SDS011;48849;48.758;9.158;2023-04-03T12:51:44;2.75;;;2.50;;
2211;SDS011;48849;48.758;9.158;2023-04-03T12:54:14;3.40;;;2.20;;
2211;SDS011;48849;48.758;9.158;2023-04-03T12:56:45;3.40;;;2.47;;
2211;SDS011;48849;48.758;9.158;2023-04-03T12:59:13;4.32;;;2.53;;
2211;SDS011;48849;48.758;9.158;2023-04-03T13:01:42;3.60;;;2.25;;
2211;SDS011;48849;48.758;9.158;2023-04-03T13:04:09;5.18;;;2.83;;
2211;SDS011;48849;48.758;9.158;2023-04-03T13:06:38;2.92;;;2.40;;
2211;SDS011;48849;48.758;9.158;2023-04-03T13:09:06;2.70;;;2.50;;
2211;SDS011;48849;48.758;9.158;2023-04-03T13:11:47;3.03;;;2.25;;
2211;SDS011;48849;48.758;9.158;2023-04-03T13:14:16;3.78;;;2.70;;
2211;SDS011;48849;48.758;9.158;2023-04-03T13:16:52;2.97;;;2.72;;
2211;SDS011;48849;48.758;9.158;2023-04-03T13:19:19;2.40;;;2.20;;
2211;SDS011;48849;48.758;9.158;2023-04-03T13:21:48;3.33;;;2.40;;
2211;SDS011;48849;48.758;9.158;2023-04-03T13:24:19;5.40;;;2.40;;
2211;SDS011;48849;48.758;9.158;2023-04-03T13:26:46;3.42;;;2.65;;
2211;SDS011;48849;48.758;9.158;2023-04-03T13:29:19;2.17;;;1.95;;
2211;SDS011;48849;48.758;9.158;2023-04-03T13:31:51;4.65;;;2.50;;
2211;SDS011;48849;48.758;9.158;2023-04-03T13:34:19;3.45;;;2.50;;
2211;SDS011;48849;48.758;9.158;2023-04-03T13:36:54;2.50;;;2.30;;
2211;SDS011;48849;48.758;9.158;2023-04-03T13:39:25;2.58;;;2.38;;
2211;SDS011;48849;48.758;9.158;2023-04-03T13:41:54;3.60;;;2.60;;
2211;SDS011;48849;48.758;9.158;2023-04-03T13:44:32;3.10;;;2.80;;
2211;SDS011;48849;48.758;9.158;2023-04-03T13:47:01;3.15;;;2.80;;
2211;SDS011;48849;48.758;9.158;2023-04-03T13:49:43;4.25;;;2.50;;
2211;SDS011;48849;48.758;9.158;2023-04-03T13:52:21;3.05;;;2.83;;
2211;SDS011;48849;48.758;9.158;2023-04-03T13:54:53;3.83;;;2.55;;
2211;SDS011;48849;48.758;9.158;2023-04-03T13:57:22;3.22;;;2.90;;
2211;SDS011;48849;48.758;9.158;2023-04-03T13:59:49;3.10;;;2.80;;
2211;SDS011;48849;48.758;9.158;2023-04-03T14:02:18;4.22;;;2.78;;
2211;SDS011;48849;48.758;9.158;2023-04-03T14:04:48;2.58;;;2.35;;
2211;SDS011;48849;48.758;9.158;2023-04-03T14:07:21;5.03;;;2.90;;
2211;SDS011;48849;48.758;9.158;2023-04-03T14:09:48;4.20;;;2.78;;
2211;SDS011;48849;48.758;9.158;2023-04-03T14:12:18;3.45;;;2.60;;
2211;SDS011;48849;48.758;9.158;2023-04-03T14:14:47;3.42;;;3.00;;
2211;SDS011;48849;48.758;9.158;2023-04-03T14:17:14;3.03;;;2.70;;
2211;SDS011;48849;48.758;9.158;2023-04-03T14:19:43;2.92;;;2.53;;
2211;SDS011;48849;48.758;9.158;2023-04-03T14:22:13;2.97;;;2.75;;
2211;SDS011;48849;48.758;9.158;2023-04-03T14:24:43;2.90;;;2.70;;
2211;SDS011;48849;48.758;9.158;2023-04-03T14:27:13;5.05;;;2.70;;
2211;SDS011;48849;48.758;9.158;2023-04-03T14:29:44;2.85;;;2.55;;
2211;SDS011;48849;48.758;9.158;2023-04-03T14:32:12;5.88;;;2.83;;
2211;SDS011;48849;48.758;9.158;2023-04-03T14:34:40;3.75;;;3.00;;
2211;SDS011;48849;48.758;9.158;2023-04-03T14:37:09;5.93;;;2.90;;
2211;SDS011;48849;48.758;9.158;2023-04-03T14:39:38;3.20;;;2.60;;
2211;SDS011;48849;48.758;9.158;2023-04-03T14:42:04;4.57;;;2.80;;
2211;SDS011;48849;48.758;9.158;2023-04-03T14:44:33;5.15;;;2.90;;
2211;SDS011;48849;48.758;9.158;2023-04-03T14:46:59;6.32;;;2.97;;
2211;SDS011;48849;48.758;9.158;2023-04-03T14:49:27;2.92;;;2.40;;
2211;SDS011;48849;48.758;9.158;2023-04-03T14:51:54;3.47;;;2.53;;
2211;SDS011;48849;48.758;9.158;2023-04-03T14:54:22;2.83;;;2.63;;
2211;SDS011;48849;48.758;9.158;2023-04-03T14:56:50;2.88;;;2.67;;
2211;SDS011;48849;48.758;9.158;2023-04-03T14:59:17;2.97;;;2.35;;
2211;SDS011;48849;48.758;9.158;2023-04-03T15:01:46;3.28;;;2.88;;
2211;SDS011;48849;48.758;9.158;2023-04-03T15:04:13;5.18;;;2.85;;
2211;SDS011;48849;48.758;9.158;2023-04-03T15:06:40;3.33;;;2.50;;
2211;SDS011;48849;48.758;9.158;2023-04-03T15:09:10;2.83;;;2.45;;
2211;SDS011;48849;48.758;9.158;2023-04-03T15:11:45;3.45;;;2.70;;
2211;SDS011;48849;48.758;9.158;2023-04-03T15:14:12;3.10;;;2.50;;
2211;SDS011;48849;48.758;9.158;2023-04-03T15:16:39;3.55;;;2.60;;
2211;SDS011;48849;48.758;9.158;2023-04-03T15:19:07;3.35;;;2.28;;
2211;SDS011;48849;48.758;9.158;2023-04-03T15:21:33;3.63;;;2.80;;
2211;SDS011;48849;48.758;9.158;2023-04-03T15:24:00;3.58;;;2.90;;
2211;SDS011;48849;48.758;9.158;2023-04-03T15:26:27;3.65;;;2.85;;
2211;SDS011;48849;48.758;9.158;2023-04-03T15:28:55;4.80;;;2.95;;
2211;SDS011;48849;48.758;9.158;2023-04-03T15:31:21;3.17;;;2.90;;
2211;SDS011;48849;48.758;9.158;2023-04-03T15:33:48;2.95;;;2.25;;
2211;SDS011;48849;48.758;9.158;2023-04-03T15:36:16;4.80;;;2.50;;
2211;SDS011;48849;48.758;9.158;2023-04-03T15:38:43;4.07;;;2.42;;
2211;SDS011;48849;48.758;9.158;2023-04-03T15:41:09;3.28;;;2.20;;
2211;SDS011;48849;48.758;9.158;2023-04-03T15:43:36;2.97;;;2.53;;